LKJA weather

Jaroměř Airport
Jaroměř, Hradec Králové Region, Czechia

Public forecast

Using degrees Celsius for public forecast. Weather courtesy of forecast.io.

METAR (pilot weather report)

Closest report is Pardubice Airport, 20.8 nm (38.5 km) SSW. Retrieved 2019/07/22 17:00 UTC (28 minutes ago):

LKPD 221700Z 32003KT 270V030 CAVOK 28/11 Q1021 NOSIG RMK BLU BLU

TAF (pilot weather forecast)

Closest forecast is Pardubice Airport, 20.8 nm (38.5 km) SSW. Retrieved 2019/07/22 12:06 UTC (5 hours ago):

TAF LKPD 221100Z 2212/2312 28008KT CAVOK